Time;durP1;ratioP1;P1;durP2;ratioP2;P2;SDS_P1;SDS_P2;PMS_P1;PMS_P2;Temp;Humidity;BMP_temperature;BMP_pressure;BME280_temperature;BME280_humidity;BME280_pressure;Samples;Min_cycle;Max_cycle;Signal;HPM_P1;HPM_P2
2022/03/17 00:01:38;;;;;;;19.90;17.90;;;13.50;65.50;;;;;;938941;149;27383;-76
2022/03/17 00:04:05;;;;;;;18.83;16.97;;;13.50;65.50;;;;;;941277;149;27273;-77
2022/03/17 00:06:32;;;;;;;18.23;16.33;;;13.40;65.40;;;;;;941170;149;27380;-77
2022/03/17 00:09:00;;;;;;;19.13;17.13;;;13.40;65.40;;;;;;938821;149;27490;-79
2022/03/17 00:11:25;;;;;;;18.90;16.90;;;13.40;65.40;;;;;;939693;149;27347;-77
2022/03/17 00:13:51;;;;;;;18.87;16.97;;;13.40;65.40;;;;;;936714;149;27367;-76
2022/03/17 00:16:18;;;;;;;17.67;15.97;;;13.40;65.40;;;;;;940454;149;27349;-76
2022/03/17 00:18:45;;;;;;;18.20;16.43;;;13.30;65.60;;;;;;939287;149;27484;-79
2022/03/17 00:21:11;;;;;;;17.63;15.93;;;13.30;65.40;;;;;;939334;149;27466;-76
2022/03/17 00:23:38;;;;;;;18.30;16.50;;;13.30;65.70;;;;;;937698;149;27780;-77
2022/03/17 00:26:04;;;;;;;17.80;16.10;;;13.20;65.60;;;;;;937066;149;27368;-77
2022/03/17 00:28:31;;;;;;;17.67;15.97;;;13.20;65.60;;;;;;937224;149;27314;-77
2022/03/17 00:30:58;;;;;;;19.30;17.40;;;13.20;65.70;;;;;;939419;149;27270;-77
2022/03/17 00:33:24;;;;;;;18.43;16.57;;;13.10;65.70;;;;;;939590;149;27365;-78
2022/03/17 00:35:51;;;;;;;20.30;18.20;;;13.10;65.70;;;;;;939192;149;27505;-76
2022/03/17 00:38:17;;;;;;;19.00;17.10;;;13.10;65.80;;;;;;939757;149;27400;-76
2022/03/17 00:40:44;;;;;;;19.93;17.93;;;13.00;65.90;;;;;;938695;149;27329;-77
2022/03/17 00:43:13;;;;;;;19.60;17.60;;;13.00;65.90;;;;;;938692;149;27317;-77
2022/03/17 00:45:37;;;;;;;19.07;17.23;;;13.00;66.00;;;;;;940756;149;27561;-79
2022/03/17 00:48:04;;;;;;;19.03;17.23;;;13.00;66.00;;;;;;940322;149;27453;-76
2022/03/17 00:50:30;;;;;;;18.93;17.00;;;13.00;66.00;;;;;;940546;149;27339;-76
2022/03/17 00:52:58;;;;;;;19.67;17.67;;;12.90;66.00;;;;;;936792;149;27346;-77
2022/03/17 00:55:24;;;;;;;19.67;17.37;;;12.90;66.00;;;;;;937665;149;27322;-77
2022/03/17 00:57:50;;;;;;;19.87;17.97;;;12.90;66.10;;;;;;939372;149;27429;-80
2022/03/17 01:00:18;;;;;;;20.67;18.50;;;12.90;66.10;;;;;;937482;149;27364;-76
2022/03/17 01:02:43;;;;;;;20.70;18.60;;;12.80;66.00;;;;;;937682;149;27417;-77
2022/03/17 01:05:10;;;;;;;19.90;18.00;;;12.80;66.10;;;;;;940136;149;27318;-78
2022/03/17 01:07:37;;;;;;;20.70;18.60;;;12.80;66.10;;;;;;924975;151;27398;-77
2022/03/17 01:10:04;;;;;;;20.27;18.37;;;12.80;66.20;;;;;;921387;152;27478;-80
2022/03/17 01:12:30;;;;;;;20.60;18.50;;;12.80;66.20;;;;;;921935;152;27483;-76
2022/03/17 01:14:56;;;;;;;20.37;18.40;;;12.80;66.20;;;;;;921020;152;27345;-76
2022/03/17 01:17:23;;;;;;;20.10;18.00;;;12.70;66.20;;;;;;922169;152;27293;-77
2022/03/17 01:19:49;;;;;;;21.30;19.10;;;12.70;66.20;;;;;;920841;152;27390;-77
2022/03/17 01:22:16;;;;;;;20.73;18.63;;;12.70;66.20;;;;;;921783;152;27370;-79
2022/03/17 01:24:43;;;;;;;19.70;17.73;;;12.70;66.40;;;;;;925158;152;27489;-76
2022/03/17 01:27:09;;;;;;;19.60;17.70;;;12.60;66.30;;;;;;918644;152;27877;-77
2022/03/17 01:29:43;;;;;;;21.23;19.03;;;12.60;66.40;;;;;;929095;149;27284;-76
2022/03/17 01:32:02;;;;;;;20.23;18.23;;;12.60;66.40;;;;;;932376;150;27387;-76
2022/03/17 01:34:29;;;;;;;22.13;19.93;;;12.60;66.40;;;;;;933977;150;27773;-77
2022/03/17 01:36:56;;;;;;;20.97;18.93;;;12.60;66.50;;;;;;925477;149;27372;-79
2022/03/17 01:39:23;;;;;;;21.43;19.33;;;12.60;66.50;;;;;;923692;149;27807;-80
2022/03/17 01:41:49;;;;;;;19.23;17.33;;;12.60;66.50;;;;;;923843;149;27491;-77
2022/03/17 01:44:15;;;;;;;20.77;18.60;;;12.60;66.50;;;;;;934375;150;27350;-77
2022/03/17 01:49:27;;;;;;;19.67;17.57;;;12.60;66.50;;;;;;935315;150;27543;-77
2022/03/17 01:51:53;;;;;;;20.23;18.13;;;12.60;66.40;;;;;;933048;148;27445;-76
2022/03/17 01:54:20;;;;;;;20.73;18.47;;;12.70;66.40;;;;;;933624;147;27348;-75
2022/03/17 01:56:46;;;;;;;21.13;19.13;;;12.70;66.40;;;;;;925131;149;27369;-76
2022/03/17 01:59:13;;;;;;;20.63;18.63;;;12.70;66.30;;;;;;926769;149;27288;-77
2022/03/17 02:01:40;;;;;;;19.90;18.00;;;12.70;66.20;;;;;;924879;149;27328;-78
2022/03/17 02:04:06;;;;;;;20.87;18.77;;;12.70;66.10;;;;;;933646;149;27508;-76
2022/03/17 02:06:33;;;;;;;20.43;18.53;;;12.80;66.10;;;;;;933241;149;27488;-76
2022/03/17 02:08:59;;;;;;;19.70;17.63;;;12.80;66.00;;;;;;922545;150;27401;-76
2022/03/17 02:14:11;;;;;;;20.17;18.27;;;12.80;65.80;;;;;;916546;150;27440;-77
2022/03/17 02:16:37;;;;;;;19.43;17.47;;;12.90;65.90;;;;;;930436;148;27354;-76
2022/03/17 02:19:04;;;;;;;19.60;17.67;;;12.90;65.90;;;;;;933274;148;27340;-76
2022/03/17 02:21:34;;;;;;;19.93;17.97;;;12.90;65.70;;;;;;938799;148;27393;-76
2022/03/17 02:26:42;;;;;;;20.37;18.37;;;12.90;65.60;;;;;;931611;148;27396;-79
2022/03/17 02:29:08;;;;;;;19.57;17.77;;;13.00;65.50;;;;;;929913;150;27376;-76
2022/03/17 02:31:35;;;;;;;19.13;17.13;;;12.90;65.40;;;;;;929069;149;27351;-76
2022/03/17 02:34:01;;;;;;;21.40;19.10;;;13.00;65.30;;;;;;926532;150;27409;-76
2022/03/17 02:36:29;;;;;;;19.10;17.20;;;13.00;65.40;;;;;;927162;149;27321;-75
2022/03/17 02:38:54;;;;;;;20.87;18.77;;;13.00;65.20;;;;;;928614;150;27291;-76
2022/03/17 02:41:24;;;;;;;20.83;18.70;;;13.00;65.10;;;;;;928540;149;27355;-76
2022/03/17 02:43:53;;;;;;;20.07;18.07;;;13.00;65.10;;;;;;928244;149;27472;-76
2022/03/17 02:46:21;;;;;;;20.23;18.20;;;13.00;65.10;;;;;;929532;149;27343;-76
2022/03/17 02:48:46;;;;;;;21.40;19.20;;;13.00;65.00;;;;;;926022;149;27430;-76
2022/03/17 02:51:13;;;;;;;20.07;18.17;;;13.00;65.00;;;;;;928567;149;27426;-78
2022/03/17 02:53:40;;;;;;;19.60;17.67;;;13.00;64.90;;;;;;929344;150;27444;-76
2022/03/17 02:56:06;;;;;;;19.80;17.90;;;13.00;64.80;;;;;;926984;149;27352;-76
2022/03/17 02:58:33;;;;;;;19.00;17.00;;;13.00;64.80;;;;;;928465;149;27335;-77
2022/03/17 03:00:59;;;;;;;19.00;17.13;;;13.00;64.90;;;;;;927231;149;27371;-77
2022/03/17 03:03:27;;;;;;;20.07;18.07;;;13.00;64.80;;;;;;929064;149;27415;-78
2022/03/17 03:05:53;;;;;;;20.23;18.17;;;13.00;64.80;;;;;;928651;149;27343;-76
2022/03/17 03:08:19;;;;;;;18.63;16.83;;;13.00;64.80;;;;;;926996;150;27420;-76
2022/03/17 03:10:46;;;;;;;19.40;17.60;;;13.00;64.80;;;;;;928664;149;27361;-76
2022/03/17 03:13:12;;;;;;;18.87;16.97;;;13.00;64.80;;;;;;928373;150;27401;-75
2022/03/17 03:15:39;;;;;;;19.00;17.20;;;13.00;64.80;;;;;;927185;149;27322;-79
2022/03/17 03:18:06;;;;;;;18.23;16.53;;;13.00;64.80;;;;;;930093;149;27424;-76
2022/03/17 03:20:32;;;;;;;20.03;18.03;;;12.90;64.80;;;;;;927330;149;27432;-76
2022/03/17 03:22:59;;;;;;;18.93;17.03;;;12.90;64.80;;;;;;928817;150;27393;-75
2022/03/17 03:25:25;;;;;;;19.17;17.17;;;12.90;64.80;;;;;;930405;149;27363;-77
2022/03/17 03:27:52;;;;;;;19.10;17.13;;;12.90;64.80;;;;;;929208;149;27360;-77
2022/03/17 03:30:20;;;;;;;19.33;17.47;;;12.80;64.70;;;;;;929792;149;28170;-76
2022/03/17 03:32:45;;;;;;;18.83;16.97;;;12.80;64.80;;;;;;931190;149;27439;-76
2022/03/17 03:37:59;;;;;;;19.27;16.80;;;12.80;64.80;;;;;;931856;150;27428;-79
2022/03/17 03:40:26;;;;;;;19.60;17.70;;;12.80;64.80;;;;;;927100;150;27387;-79
2022/03/17 03:42:52;;;;;;;20.07;18.07;;;12.70;64.60;;;;;;934964;150;27868;-79
2022/03/17 03:45:19;;;;;;;19.07;17.20;;;12.70;64.70;;;;;;933712;150;27313;-79
2022/03/17 03:47:45;;;;;;;18.57;16.73;;;12.70;64.60;;;;;;932592;150;27334;-79
2022/03/17 03:50:12;;;;;;;19.00;17.10;;;12.70;64.80;;;;;;932926;150;27268;-79
2022/03/17 03:52:39;;;;;;;18.50;16.70;;;12.70;64.80;;;;;;926253;150;27835;-79
2022/03/17 03:55:05;;;;;;;18.77;16.97;;;12.60;64.80;;;;;;931628;150;27386;-79
2022/03/17 03:57:32;;;;;;;18.50;16.70;;;12.60;64.70;;;;;;931556;149;27393;-79
2022/03/17 03:59:59;;;;;;;19.23;17.33;;;12.60;64.70;;;;;;937116;148;27428;-79
2022/03/17 04:02:25;;;;;;;20.10;17.60;;;12.60;64.80;;;;;;931707;147;27418;-79
2022/03/17 04:04:52;;;;;;;19.03;17.13;;;12.60;64.80;;;;;;926815;150;27350;-79
2022/03/17 04:07:18;;;;;;;19.03;17.20;;;12.60;64.80;;;;;;929552;149;27450;-79
2022/03/17 04:09:45;;;;;;;20.43;18.27;;;12.60;64.80;;;;;;933575;150;27910;-79
2022/03/17 04:12:11;;;;;;;19.60;17.60;;;12.50;65.20;;;;;;930500;149;27433;-79
2022/03/17 04:14:38;;;;;;;19.67;17.67;;;12.50;64.80;;;;;;925315;149;27372;-79
2022/03/17 04:17:05;;;;;;;19.20;17.23;;;12.50;64.80;;;;;;934497;150;27303;-79
2022/03/17 04:19:31;;;;;;;18.30;16.60;;;12.50;65.00;;;;;;933961;150;27379;-79
2022/03/17 04:21:58;;;;;;;18.77;16.87;;;12.50;65.50;;;;;;930186;150;27338;-79
2022/03/17 04:24:24;;;;;;;19.23;17.23;;;12.50;64.80;;;;;;929287;149;27415;-79
2022/03/17 04:26:52;;;;;;;19.60;17.60;;;12.50;64.80;;;;;;933588;150;27320;-79
2022/03/17 04:29:18;;;;;;;19.57;17.57;;;12.50;64.80;;;;;;937673;148;27353;-79
2022/03/17 04:31:44;;;;;;;19.83;17.90;;;12.50;64.80;;;;;;942508;148;27393;-79
2022/03/17 04:34:11;;;;;;;18.57;16.57;;;12.50;64.80;;;;;;938127;148;27381;-79
2022/03/17 04:36:37;;;;;;;19.23;17.37;;;12.50;64.80;;;;;;933170;150;27278;-79
2022/03/17 04:39:04;;;;;;;18.43;16.63;;;12.50;64.80;;;;;;931978;150;27412;-79
2022/03/17 04:41:31;;;;;;;19.20;17.20;;;12.50;64.70;;;;;;930440;150;27331;-79
2022/03/17 04:43:57;;;;;;;20.00;18.00;;;12.50;64.70;;;;;;933270;150;27350;-79
2022/03/17 04:46:24;;;;;;;19.10;17.10;;;12.50;64.70;;;;;;937728;148;27371;-79
2022/03/17 04:48:50;;;;;;;18.57;16.80;;;12.50;64.60;;;;;;934562;149;27406;-79
2022/03/17 04:51:17;;;;;;;18.60;16.63;;;12.50;64.60;;;;;;935986;149;27321;-79
2022/03/17 04:53:44;;;;;;;19.67;17.83;;;12.50;64.70;;;;;;935810;149;27349;-79
2022/03/17 04:56:10;;;;;;;20.97;17.10;;;12.50;64.70;;;;;;935913;149;27413;-79
2022/03/17 04:58:37;;;;;;;19.33;17.30;;;12.50;64.80;;;;;;936461;149;27373;-79
2022/03/17 05:01:03;;;;;;;19.70;17.70;;;12.50;64.80;;;;;;936336;149;27338;-79
2022/03/17 05:03:30;;;;;;;18.83;17.03;;;12.50;64.80;;;;;;936044;149;27331;-79
2022/03/17 05:05:56;;;;;;;20.27;18.17;;;12.40;64.70;;;;;;936376;149;27308;-79
2022/03/17 05:08:23;;;;;;;19.37;17.47;;;12.40;64.80;;;;;;934944;149;27405;-79
2022/03/17 05:10:52;;;;;;;19.97;18.07;;;12.40;64.80;;;;;;934214;149;27348;-79
2022/03/17 05:13:34;;;;;;;19.03;17.23;;;12.40;64.90;;;;;;937450;149;27438;-79
2022/03/17 05:15:46;;;;;;;20.93;18.83;;;12.40;64.80;;;;;;932142;149;27377;-79
2022/03/17 05:18:12;;;;;;;21.50;19.40;;;12.40;64.80;;;;;;934820;149;27307;-79
2022/03/17 05:20:40;;;;;;;20.13;18.20;;;12.40;64.80;;;;;;935767;149;27361;-79
2022/03/17 05:23:05;;;;;;;20.37;18.37;;;12.30;64.80;;;;;;935818;149;27506;-79
2022/03/17 05:25:32;;;;;;;19.17;17.17;;;12.30;64.80;;;;;;934511;149;27330;-79
2022/03/17 05:27:59;;;;;;;20.97;18.87;;;12.30;64.90;;;;;;935973;149;27288;-79
2022/03/17 05:30:26;;;;;;;19.87;17.17;;;12.30;65.00;;;;;;923343;149;27447;-79
2022/03/17 05:32:52;;;;;;;19.73;17.73;;;12.30;65.00;;;;;;921812;154;27373;-79
2022/03/17 05:35:18;;;;;;;18.93;16.90;;;12.30;65.00;;;;;;922540;154;27837;-79
2022/03/17 05:37:45;;;;;;;18.00;16.10;;;12.30;65.10;;;;;;925507;151;27308;-79
2022/03/17 05:40:15;;;;;;;19.43;17.40;;;12.20;65.10;;;;;;923252;154;27374;-79
2022/03/17 05:42:38;;;;;;;19.47;17.37;;;12.30;65.20;;;;;;922231;153;27439;-79
2022/03/17 05:45:05;;;;;;;20.27;18.17;;;12.30;65.20;;;;;;924283;154;27379;-79
2022/03/17 05:47:34;;;;;;;20.90;18.27;;;12.30;65.20;;;;;;923975;153;27343;-79
2022/03/17 05:50:01;;;;;;;19.17;17.30;;;12.30;65.30;;;;;;922865;152;27404;-79
2022/03/17 05:52:27;;;;;;;18.73;16.83;;;12.30;65.50;;;;;;923668;152;27413;-79
2022/03/17 05:54:54;;;;;;;18.90;17.00;;;12.30;65.30;;;;;;923399;153;27391;-79
2022/03/17 05:57:21;;;;;;;19.23;17.33;;;12.30;65.30;;;;;;922128;154;27387;-79
2022/03/17 05:59:47;;;;;;;19.63;17.73;;;12.30;65.30;;;;;;923081;153;28684;-79
2022/03/17 06:02:14;;;;;;;19.03;17.13;;;12.30;65.30;;;;;;934408;152;27441;-79
2022/03/17 06:04:41;;;;;;;18.90;17.00;;;12.30;65.30;;;;;;937986;149;27653;-79
2022/03/17 06:07:07;;;;;;;18.27;16.37;;;12.30;65.30;;;;;;937790;151;27337;-79
2022/03/17 06:09:33;;;;;;;18.43;16.53;;;12.30;65.30;;;;;;935417;151;27372;-79
2022/03/17 06:12:00;;;;;;;19.50;17.40;;;12.30;65.30;;;;;;932207;150;27347;-79
2022/03/17 06:14:27;;;;;;;19.87;17.90;;;12.30;65.40;;;;;;932931;152;27275;-79
2022/03/17 06:16:53;;;;;;;19.43;17.43;;;12.30;65.30;;;;;;932093;152;27309;-79
2022/03/17 06:19:20;;;;;;;19.23;17.33;;;12.30;65.30;;;;;;929270;152;27325;-79
2022/03/17 06:21:46;;;;;;;19.87;17.97;;;12.30;65.40;;;;;;931423;152;27451;-79
2022/03/17 06:24:13;;;;;;;19.97;17.93;;;12.30;65.40;;;;;;931352;152;27262;-79
2022/03/17 06:26:40;;;;;;;20.37;18.20;;;12.30;65.40;;;;;;931657;152;27431;-79
2022/03/17 06:29:06;;;;;;;20.43;18.23;;;12.30;65.40;;;;;;933571;147;27278;-79
2022/03/17 06:31:36;;;;;;;19.33;17.07;;;12.30;65.40;;;;;;945933;147;27307;-79
2022/03/17 06:33:59;;;;;;;19.60;17.60;;;12.30;65.40;;;;;;936546;149;27897;-79
2022/03/17 06:36:26;;;;;;;19.33;17.33;;;12.30;65.40;;;;;;940382;150;28434;-79
2022/03/17 06:38:53;;;;;;;19.30;17.40;;;12.40;65.60;;;;;;941799;151;27292;-79
2022/03/17 06:41:19;;;;;;;20.03;17.93;;;12.40;66.00;;;;;;939659;149;27398;-79
2022/03/17 06:43:46;;;;;;;19.57;17.63;;;12.40;65.60;;;;;;939715;151;27319;-79
2022/03/17 06:46:13;;;;;;;19.77;17.67;;;12.40;65.50;;;;;;941954;149;27417;-79
2022/03/17 06:48:39;;;;;;;20.17;17.07;;;12.40;65.60;;;;;;940705;150;27473;-79
2022/03/17 06:51:06;;;;;;;19.43;17.53;;;12.50;65.60;;;;;;941546;149;27441;-79
2022/03/17 06:53:32;;;;;;;19.63;17.57;;;12.50;65.60;;;;;;940191;151;27400;-79
2022/03/17 06:55:59;;;;;;;20.63;18.33;;;12.50;65.50;;;;;;942454;149;28376;-79
2022/03/17 06:58:25;;;;;;;19.07;17.27;;;12.50;65.60;;;;;;940263;151;27334;-79
2022/03/17 07:00:52;;;;;;;20.07;17.97;;;12.60;65.60;;;;;;940745;149;28581;-79
2022/03/17 07:03:18;;;;;;;19.87;17.87;;;12.60;65.60;;;;;;941225;148;27389;-79
2022/03/17 07:05:45;;;;;;;20.57;18.57;;;12.60;65.60;;;;;;939114;149;27750;-79
2022/03/17 07:08:12;;;;;;;20.23;18.23;;;12.60;65.50;;;;;;940696;149;27458;-79
2022/03/17 07:10:38;;;;;;;19.40;17.40;;;12.70;65.40;;;;;;940951;149;27423;-79
2022/03/17 07:13:05;;;;;;;21.30;19.07;;;12.70;65.40;;;;;;940156;151;27311;-79
2022/03/17 07:15:31;;;;;;;19.70;17.87;;;12.80;65.40;;;;;;938820;149;27325;-79
2022/03/17 07:17:58;;;;;;;20.40;18.10;;;12.80;65.40;;;;;;940733;151;27253;-79
2022/03/17 07:20:25;;;;;;;20.77;18.63;;;12.90;65.40;;;;;;939293;149;27323;-81
2022/03/17 07:22:51;;;;;;;19.63;17.73;;;12.90;65.40;;;;;;942813;150;27440;-78
2022/03/17 07:25:18;;;;;;;21.70;19.50;;;12.90;65.30;;;;;;940935;151;27370;-79
2022/03/17 07:27:44;;;;;;;20.87;18.70;;;13.00;65.20;;;;;;939818;149;27265;-79
2022/03/17 07:30:18;;;;;;;21.63;19.43;;;13.00;65.10;;;;;;936859;151;27467;-79
2022/03/17 07:32:44;;;;;;;20.57;18.50;;;13.00;65.10;;;;;;933995;150;27346;-79
2022/03/17 07:35:10;;;;;;;21.20;18.90;;;13.10;65.10;;;;;;934684;150;27340;-79
2022/03/17 07:37:36;;;;;;;20.47;18.47;;;13.10;65.00;;;;;;935841;152;27518;-79
2022/03/17 07:40:03;;;;;;;20.40;18.27;;;13.10;65.00;;;;;;933733;152;27401;-79
2022/03/17 07:42:30;;;;;;;22.53;19.93;;;13.20;65.00;;;;;;933447;151;27355;-79
2022/03/17 07:44:56;;;;;;;20.07;18.23;;;13.20;65.10;;;;;;938495;151;27352;-79
2022/03/17 07:47:23;;;;;;;19.50;17.67;;;13.20;64.90;;;;;;935957;150;27853;-79
2022/03/17 07:49:50;;;;;;;19.83;17.90;;;13.30;65.40;;;;;;933842;150;27692;-79
2022/03/17 07:52:16;;;;;;;19.70;17.77;;;13.30;64.80;;;;;;934006;152;27289;-79
2022/03/17 07:54:43;;;;;;;21.00;18.90;;;13.40;64.80;;;;;;934347;151;27299;-79
2022/03/17 07:57:09;;;;;;;21.67;19.37;;;13.40;64.60;;;;;;933360;150;27781;-79
2022/03/17 07:59:36;;;;;;;19.37;17.57;;;13.50;64.80;;;;;;932729;151;27331;-79
2022/03/17 08:02:02;;;;;;;20.10;18.13;;;13.50;64.60;;;;;;931821;152;28051;-79
2022/03/17 08:04:29;;;;;;;22.17;19.00;;;13.60;64.60;;;;;;933561;152;27466;-79
2022/03/17 08:06:57;;;;;;;20.87;18.67;;;13.50;64.40;;;;;;932449;152;27305;-79
2022/03/17 08:09:22;;;;;;;20.83;18.70;;;13.60;64.40;;;;;;932773;150;27322;-79
2022/03/17 08:11:49;;;;;;;19.97;17.97;;;13.60;64.40;;;;;;933789;151;27369;-79
2022/03/17 08:14:16;;;;;;;20.30;18.30;;;13.60;64.20;;;;;;934674;152;27432;-79
2022/03/17 08:16:44;;;;;;;21.00;18.90;;;13.60;64.20;;;;;;934211;152;27314;-79
2022/03/17 08:19:11;;;;;;;21.43;19.10;;;13.70;64.10;;;;;;933763;150;27834;-79
2022/03/17 08:21:38;;;;;;;21.40;18.47;;;13.60;64.00;;;;;;930637;149;27298;-79
2022/03/17 08:24:04;;;;;;;20.77;18.77;;;13.60;63.90;;;;;;932883;152;27383;-79
2022/03/17 08:26:31;;;;;;;20.27;18.37;;;13.60;63.90;;;;;;931410;151;27469;-79
2022/03/17 08:28:58;;;;;;;21.27;19.17;;;13.60;63.90;;;;;;933635;151;27389;-79
2022/03/17 08:31:24;;;;;;;21.70;19.60;;;13.60;64.00;;;;;;936446;151;27321;-79
2022/03/17 08:33:51;;;;;;;21.07;18.87;;;13.60;64.00;;;;;;939759;150;27380;-79
2022/03/17 08:36:17;;;;;;;21.47;19.30;;;13.60;64.10;;;;;;935846;148;27459;-79
2022/03/17 08:38:44;;;;;;;21.07;18.83;;;13.70;64.20;;;;;;939813;149;27365;-79
2022/03/17 08:41:11;;;;;;;19.87;17.77;;;13.70;64.20;;;;;;938365;149;27343;-79
2022/03/17 08:43:37;;;;;;;20.73;18.63;;;13.70;64.10;;;;;;936624;149;27438;-79
2022/03/17 08:51:34;;;;;;;20.03;17.77;;;13.80;64.50;;;;;;937262;149;27488;-80
2022/03/17 08:53:59;;;;;;;20.17;18.30;;;13.90;64.60;;;;;;939604;149;27453;-79
2022/03/17 08:56:27;;;;;;;21.73;19.30;;;13.90;64.60;;;;;;936924;149;27304;-79
2022/03/17 08:58:53;;;;;;;19.93;17.93;;;14.00;64.50;;;;;;939659;149;27390;-79
2022/03/17 09:01:19;;;;;;;19.93;17.93;;;14.10;64.50;;;;;;940546;149;27375;-79
2022/03/17 09:03:46;;;;;;;19.50;17.70;;;14.20;64.40;;;;;;937556;149;27400;-79
2022/03/17 09:06:12;;;;;;;20.67;18.67;;;14.30;64.40;;;;;;940216;149;28386;-79
2022/03/17 09:08:42;;;;;;;21.65;19.35;;;14.40;64.40;;;;;;936915;149;27386;-79
2022/03/17 09:11:09;;;;;;;21.03;18.97;;;14.60;64.30;;;;;;939525;149;27402;-79
2022/03/17 09:13:35;;;;;;;19.32;17.32;;;14.70;64.20;;;;;;935686;149;27381;-79
2022/03/17 09:16:01;;;;;;;21.02;18.87;;;14.80;64.10;;;;;;937710;149;27360;-79
2022/03/17 09:18:28;;;;;;;20.00;18.10;;;15.00;64.10;;;;;;939889;149;27385;-79
2022/03/17 09:20:56;;;;;;;19.13;17.20;;;15.10;64.00;;;;;;940251;149;27426;-79
2022/03/17 09:23:21;;;;;;;20.12;18.23;;;15.30;63.80;;;;;;939030;149;27336;-79
2022/03/17 09:25:48;;;;;;;18.87;17.07;;;15.40;63.70;;;;;;940438;149;27365;-79
2022/03/17 09:28:14;;;;;;;19.87;17.92;;;15.60;63.60;;;;;;938722;149;27345;-79
2022/03/17 09:30:41;;;;;;;19.07;17.27;;;15.80;63.20;;;;;;939023;149;27404;-79
2022/03/17 09:33:07;;;;;;;19.55;17.75;;;15.90;62.90;;;;;;924710;152;27314;-79
2022/03/17 09:35:37;;;;;;;18.73;16.93;;;16.10;62.60;;;;;;925271;152;27342;-79
2022/03/17 09:38:03;;;;;;;19.95;17.98;;;16.20;62.10;;;;;;925802;153;27393;-79
2022/03/17 09:40:30;;;;;;;18.65;16.87;;;16.30;61.90;;;;;;923413;152;27430;-80
2022/03/17 09:43:42;;;;;;;19.42;17.57;;;16.40;61.60;;;;;;924010;151;27343;-79
2022/03/17 09:45:24;;;;;;;18.32;16.65;;;16.50;61.40;;;;;;912481;151;27291;-79
2022/03/17 09:47:50;;;;;;;19.92;17.82;;;16.50;61.00;;;;;;921396;152;27364;-80
2022/03/17 09:50:17;;;;;;;18.52;16.73;;;16.60;60.80;;;;;;924655;152;27350;-79
2022/03/17 09:52:44;;;;;;;18.55;16.75;;;16.70;60.70;;;;;;923036;152;27407;-80
2022/03/17 09:55:10;;;;;;;18.35;16.55;;;16.70;60.50;;;;;;924910;152;27416;-80
2022/03/17 09:57:36;;;;;;;18.27;16.65;;;16.80;60.50;;;;;;923676;152;27351;-79
2022/03/17 10:00:03;;;;;;;18.17;16.48;;;16.90;60.20;;;;;;923660;152;27374;-79
2022/03/17 10:02:30;;;;;;;17.67;15.98;;;17.00;60.20;;;;;;923177;153;27459;-80
2022/03/17 10:04:56;;;;;;;17.98;15.28;;;17.00;60.00;;;;;;922155;151;27342;-79
2022/03/17 10:07:22;;;;;;;18.37;16.50;;;17.10;60.00;;;;;;924032;153;27405;-79
2022/03/17 10:09:49;;;;;;;18.17;16.45;;;17.20;59.80;;;;;;924399;152;27438;-79
2022/03/17 10:12:16;;;;;;;19.02;17.07;;;17.20;59.60;;;;;;923918;151;27628;-79
2022/03/17 10:14:43;;;;;;;19.77;17.90;;;17.30;59.40;;;;;;923602;153;27472;-79
2022/03/17 10:17:10;;;;;;;17.48;15.80;;;17.30;59.20;;;;;;924395;151;27323;-79
2022/03/17 10:19:36;;;;;;;17.35;15.70;;;17.40;59.10;;;;;;918536;154;27396;-79
2022/03/17 10:22:08;;;;;;;17.05;15.45;;;17.40;59.00;;;;;;924168;153;27391;-79
2022/03/17 10:24:36;;;;;;;17.32;15.68;;;17.40;58.70;;;;;;924161;151;27345;-79
2022/03/17 10:27:03;;;;;;;18.95;17.15;;;17.40;58.40;;;;;;922537;152;27365;-79
2022/03/17 10:29:28;;;;;;;18.45;16.67;;;17.30;58.20;;;;;;922353;152;27367;-79
2022/03/17 10:32:06;;;;;;;17.70;16.00;;;17.30;58.10;;;;;;926007;151;27382;-79
2022/03/17 10:34:36;;;;;;;16.90;15.38;;;17.30;58.20;;;;;;938092;149;27418;-79
2022/03/17 10:37:15;;;;;;;17.60;15.90;;;17.20;58.20;;;;;;938439;149;27390;-79
2022/03/17 10:39:42;;;;;;;18.25;16.42;;;17.20;58.20;;;;;;940563;149;27402;-79
2022/03/17 10:42:10;;;;;;;17.85;16.15;;;17.10;58.00;;;;;;939684;149;27319;-79
2022/03/17 10:44:37;;;;;;;17.02;15.43;;;17.10;58.00;;;;;;937404;149;27447;-79
2022/03/17 10:47:03;;;;;;;18.75;16.52;;;17.00;58.00;;;;;;938396;148;27353;-79
2022/03/17 10:49:30;;;;;;;16.97;15.35;;;17.00;58.10;;;;;;938305;148;27364;-79
2022/03/17 10:51:57;;;;;;;16.48;14.98;;;16.90;58.00;;;;;;939932;149;27472;-79
2022/03/17 10:54:23;;;;;;;17.67;16.07;;;16.90;58.10;;;;;;938044;149;27423;-79
2022/03/17 10:57:00;;;;;;;19.57;17.77;;;16.80;58.10;;;;;;938802;149;27331;-79
2022/03/17 10:59:25;;;;;;;18.10;16.40;;;16.70;58.30;;;;;;938211;149;27317;-79
2022/03/17 11:01:52;;;;;;;18.25;16.52;;;16.70;58.40;;;;;;930669;149;27462;-79
2022/03/17 11:04:21;;;;;;;18.57;16.77;;;16.60;58.40;;;;;;938390;149;27371;-79
2022/03/17 11:06:45;;;;;;;20.02;18.02;;;16.50;58.40;;;;;;939696;149;27270;-79
2022/03/17 11:09:12;;;;;;;18.33;16.17;;;16.50;58.50;;;;;;937811;149;27340;-79
2022/03/17 11:11:39;;;;;;;18.15;16.23;;;16.40;58.50;;;;;;937701;149;27427;-79
2022/03/17 11:14:05;;;;;;;18.87;17.00;;;16.40;58.50;;;;;;938460;149;27450;-79
2022/03/17 11:16:43;;;;;;;17.97;16.13;;;16.30;58.40;;;;;;939205;149;27442;-78
2022/03/17 11:19:12;;;;;;;19.12;17.15;;;16.20;58.50;;;;;;938928;149;27397;-79
2022/03/17 11:21:37;;;;;;;19.52;17.50;;;16.10;58.60;;;;;;939350;149;27310;-79
2022/03/17 11:24:06;;;;;;;20.20;18.23;;;16.10;58.70;;;;;;938512;149;27291;-79
2022/03/17 11:26:35;;;;;;;18.20;16.40;;;16.00;58.80;;;;;;938620;149;27496;-79
2022/03/17 11:29:08;;;;;;;19.20;17.20;;;16.00;58.90;;;;;;940157;148;27458;-79
2022/03/17 11:31:56;;;;;;;19.12;17.10;;;16.00;59.00;;;;;;936867;148;27437;-79
2022/03/17 11:34:46;;;;;;;19.15;17.37;;;16.00;59.00;;;;;;906203;151;27482;-79
2022/03/17 11:37:16;;;;;;;18.23;16.42;;;15.90;59.00;;;;;;907280;153;27488;-79
2022/03/17 11:40:01;;;;;;;19.62;17.73;;;15.90;59.10;;;;;;906057;153;27381;-79
2022/03/17 11:42:39;;;;;;;18.77;16.87;;;15.90;59.00;;;;;;906626;153;27377;-79
2022/03/17 11:45:15;;;;;;;18.35;16.62;;;15.90;59.10;;;;;;905346;153;27367;-79
2022/03/17 11:47:51;;;;;;;18.13;16.33;;;15.90;59.20;;;;;;902762;153;27428;-78
2022/03/17 11:50:40;;;;;;;19.30;17.48;;;15.80;59.20;;;;;;905334;153;27383;-79
2022/03/17 11:53:14;;;;;;;19.67;17.77;;;15.80;59.30;;;;;;904761;153;27570;-79
2022/03/17 11:55:43;;;;;;;18.83;16.83;;;15.80;59.30;;;;;;906895;153;27303;-79
2022/03/17 11:58:33;;;;;;;18.63;16.77;;;15.80;59.20;;;;;;906600;153;27320;-79
2022/03/17 12:01:28;;;;;;;18.73;16.95;;;15.80;59.20;;;;;;906579;153;27455;-79
2022/03/17 12:03:55;;;;;;;19.77;17.90;;;15.80;59.20;;;;;;905332;153;27330;-80
2022/03/17 12:06:21;;;;;;;19.30;17.50;;;15.70;59.30;;;;;;906407;153;27372;-79
2022/03/17 12:08:48;;;;;;;20.12;18.15;;;15.70;59.50;;;;;;904704;153;27426;-79
2022/03/17 12:11:14;;;;;;;19.52;17.55;;;15.70;59.60;;;;;;905458;153;27911;-79
2022/03/17 12:13:41;;;;;;;20.68;18.50;;;15.70;59.80;;;;;;907100;153;27396;-79
2022/03/17 12:16:07;;;;;;;19.10;17.20;;;15.70;59.90;;;;;;906236;153;27263;-79
2022/03/17 12:19:01;;;;;;;20.00;18.00;;;15.60;60.00;;;;;;904906;153;27421;-79
2022/03/17 12:22:02;;;;;;;21.17;19.13;;;15.60;60.10;;;;;;903960;153;27468;-80
2022/03/17 12:24:53;;;;;;;21.40;17.52;;;15.60;60.50;;;;;;906450;153;27539;-80
2022/03/17 12:27:31;;;;;;;19.07;17.13;;;15.50;60.60;;;;;;904310;153;27397;-79
2022/03/17 12:30:17;;;;;;;17.75;16.07;;;15.50;60.70;;;;;;906475;153;27302;-80
2022/03/17 12:32:46;;;;;;;19.02;17.17;;;15.40;60.90;;;;;;894600;156;27536;-76
2022/03/17 12:35:13;;;;;;;20.43;18.43;;;15.30;61.30;;;;;;893809;156;27411;-76
2022/03/17 12:37:40;;;;;;;19.65;17.80;;;15.20;61.40;;;;;;893460;156;27940;-76
2022/03/17 12:40:12;;;;;;;19.67;17.73;;;15.20;61.80;;;;;;893782;156;27461;-76
2022/03/17 12:42:39;;;;;;;22.73;18.65;;;15.10;61.90;;;;;;893234;156;27454;-76
2022/03/17 12:45:05;;;;;;;19.40;17.57;;;15.10;62.10;;;;;;894451;156;27437;-76
2022/03/17 12:47:35;;;;;;;20.23;18.23;;;15.10;62.30;;;;;;893788;156;27489;-76